sensor_id;sensor_type;location;lat;lon;timestamp;P1;durP1;ratioP1;P2;durP2;ratioP2
41327;SDS011;27075;47.636;-2.058;2022-11-10T00:02:42;3.03;;;2.75;;
41327;SDS011;27075;47.636;-2.058;2022-11-10T00:05:11;7.05;;;3.30;;
41327;SDS011;27075;47.636;-2.058;2022-11-10T00:07:38;8.30;;;3.42;;
41327;SDS011;27075;47.636;-2.058;2022-11-10T00:10:04;3.88;;;3.50;;
41327;SDS011;27075;47.636;-2.058;2022-11-10T00:12:31;4.97;;;4.00;;
41327;SDS011;27075;47.636;-2.058;2022-11-10T00:14:57;4.90;;;3.58;;
41327;SDS011;27075;47.636;-2.058;2022-11-10T00:17:46;4.07;;;3.20;;
41327;SDS011;27075;47.636;-2.058;2022-11-10T00:20:12;5.00;;;3.78;;
41327;SDS011;27075;47.636;-2.058;2022-11-10T00:22:39;4.60;;;4.18;;
41327;SDS011;27075;47.636;-2.058;2022-11-10T00:25:05;4.53;;;4.13;;
41327;SDS011;27075;47.636;-2.058;2022-11-10T00:29:57;7.30;;;5.25;;
41327;SDS011;27075;47.636;-2.058;2022-11-10T00:32:23;12.27;;;7.80;;
41327;SDS011;27075;47.636;-2.058;2022-11-10T00:34:50;10.35;;;6.72;;
41327;SDS011;27075;47.636;-2.058;2022-11-10T00:37:16;6.32;;;5.63;;
41327;SDS011;27075;47.636;-2.058;2022-11-10T00:39:42;18.70;;;11.52;;
41327;SDS011;27075;47.636;-2.058;2022-11-10T00:42:08;22.63;;;16.55;;
41327;SDS011;27075;47.636;-2.058;2022-11-10T00:44:34;10.23;;;7.53;;
41327;SDS011;27075;47.636;-2.058;2022-11-10T00:47:00;7.32;;;5.72;;
41327;SDS011;27075;47.636;-2.058;2022-11-10T00:49:26;5.38;;;4.75;;
41327;SDS011;27075;47.636;-2.058;2022-11-10T00:51:52;5.10;;;4.45;;
41327;SDS011;27075;47.636;-2.058;2022-11-10T00:56:44;5.38;;;4.47;;
41327;SDS011;27075;47.636;-2.058;2022-11-10T00:59:10;8.13;;;5.13;;
41327;SDS011;27075;47.636;-2.058;2022-11-10T01:01:36;5.50;;;4.78;;
41327;SDS011;27075;47.636;-2.058;2022-11-10T01:04:02;7.45;;;4.07;;
41327;SDS011;27075;47.636;-2.058;2022-11-10T01:06:28;5.65;;;3.85;;
41327;SDS011;27075;47.636;-2.058;2022-11-10T01:08:54;5.28;;;4.10;;
41327;SDS011;27075;47.636;-2.058;2022-11-10T01:11:22;4.00;;;3.33;;
41327;SDS011;27075;47.636;-2.058;2022-11-10T01:13:49;8.40;;;4.10;;
41327;SDS011;27075;47.636;-2.058;2022-11-10T01:16:16;4.72;;;3.67;;
41327;SDS011;27075;47.636;-2.058;2022-11-10T01:18:43;4.10;;;3.70;;
41327;SDS011;27075;47.636;-2.058;2022-11-10T01:21:13;4.60;;;3.60;;
41327;SDS011;27075;47.636;-2.058;2022-11-10T01:23:39;3.90;;;3.60;;
41327;SDS011;27075;47.636;-2.058;2022-11-10T01:26:06;6.45;;;3.40;;
41327;SDS011;27075;47.636;-2.058;2022-11-10T01:28:32;3.35;;;3.05;;
41327;SDS011;27075;47.636;-2.058;2022-11-10T01:30:59;3.08;;;2.83;;
41327;SDS011;27075;47.636;-2.058;2022-11-10T01:33:26;5.07;;;3.28;;
41327;SDS011;27075;47.636;-2.058;2022-11-10T01:38:18;2.70;;;2.50;;
41327;SDS011;27075;47.636;-2.058;2022-11-10T01:40:44;5.55;;;3.47;;
41327;SDS011;27075;47.636;-2.058;2022-11-10T01:43:10;3.88;;;3.58;;
41327;SDS011;27075;47.636;-2.058;2022-11-10T01:45:41;4.47;;;3.70;;
41327;SDS011;27075;47.636;-2.058;2022-11-10T01:48:09;3.05;;;2.80;;
41327;SDS011;27075;47.636;-2.058;2022-11-10T01:50:38;4.75;;;3.00;;
41327;SDS011;27075;47.636;-2.058;2022-11-10T01:53:06;6.07;;;3.83;;
41327;SDS011;27075;47.636;-2.058;2022-11-10T01:55:34;4.07;;;2.95;;
41327;SDS011;27075;47.636;-2.058;2022-11-10T01:58:02;3.22;;;2.92;;
41327;SDS011;27075;47.636;-2.058;2022-11-10T02:00:28;2.72;;;2.53;;
41327;SDS011;27075;47.636;-2.058;2022-11-10T02:05:20;3.65;;;3.28;;
41327;SDS011;27075;47.636;-2.058;2022-11-10T02:07:48;10.15;;;3.63;;
41327;SDS011;27075;47.636;-2.058;2022-11-10T02:10:15;3.55;;;2.95;;
41327;SDS011;27075;47.636;-2.058;2022-11-10T02:12:41;3.65;;;3.20;;
41327;SDS011;27075;47.636;-2.058;2022-11-10T02:17:33;3.45;;;2.92;;
41327;SDS011;27075;47.636;-2.058;2022-11-10T02:20:00;3.22;;;2.92;;
41327;SDS011;27075;47.636;-2.058;2022-11-10T02:22:28;4.32;;;3.20;;
41327;SDS011;27075;47.636;-2.058;2022-11-10T02:24:54;6.05;;;5.65;;
41327;SDS011;27075;47.636;-2.058;2022-11-10T02:27:20;7.70;;;5.43;;
41327;SDS011;27075;47.636;-2.058;2022-11-10T02:29:46;4.43;;;4.13;;
41327;SDS011;27075;47.636;-2.058;2022-11-10T02:32:12;6.40;;;5.88;;
41327;SDS011;27075;47.636;-2.058;2022-11-10T02:34:38;7.90;;;7.40;;
41327;SDS011;27075;47.636;-2.058;2022-11-10T02:37:04;5.85;;;5.45;;
41327;SDS011;27075;47.636;-2.058;2022-11-10T02:39:30;5.50;;;5.10;;
41327;SDS011;27075;47.636;-2.058;2022-11-10T02:41:56;6.07;;;5.57;;
41327;SDS011;27075;47.636;-2.058;2022-11-10T02:44:22;7.38;;;5.32;;
41327;SDS011;27075;47.636;-2.058;2022-11-10T02:46:49;5.97;;;5.47;;
41327;SDS011;27075;47.636;-2.058;2022-11-10T02:49:15;4.35;;;4.05;;
41327;SDS011;27075;47.636;-2.058;2022-11-10T02:51:41;12.30;;;4.07;;
41327;SDS011;27075;47.636;-2.058;2022-11-10T02:54:07;6.78;;;4.50;;
41327;SDS011;27075;47.636;-2.058;2022-11-10T02:56:33;10.15;;;4.30;;
41327;SDS011;27075;47.636;-2.058;2022-11-10T02:58:59;6.43;;;4.35;;
41327;SDS011;27075;47.636;-2.058;2022-11-10T03:01:25;6.35;;;4.78;;
41327;SDS011;27075;47.636;-2.058;2022-11-10T03:03:51;5.65;;;5.15;;
41327;SDS011;27075;47.636;-2.058;2022-11-10T03:06:17;5.63;;;3.10;;
41327;SDS011;27075;47.636;-2.058;2022-11-10T03:08:43;4.30;;;4.00;;
41327;SDS011;27075;47.636;-2.058;2022-11-10T03:13:35;6.55;;;3.67;;
41327;SDS011;27075;47.636;-2.058;2022-11-10T03:16:02;6.07;;;4.32;;
41327;SDS011;27075;47.636;-2.058;2022-11-10T03:18:28;4.60;;;4.15;;
41327;SDS011;27075;47.636;-2.058;2022-11-10T03:20:54;4.80;;;4.22;;
41327;SDS011;27075;47.636;-2.058;2022-11-10T03:23:20;4.47;;;4.00;;
41327;SDS011;27075;47.636;-2.058;2022-11-10T03:25:46;5.95;;;5.10;;
41327;SDS011;27075;47.636;-2.058;2022-11-10T03:28:12;6.20;;;5.55;;
41327;SDS011;27075;47.636;-2.058;2022-11-10T03:30:38;6.90;;;6.00;;
41327;SDS011;27075;47.636;-2.058;2022-11-10T03:35:30;4.80;;;4.07;;
41327;SDS011;27075;47.636;-2.058;2022-11-10T03:40:22;4.85;;;4.45;;
41327;SDS011;27075;47.636;-2.058;2022-11-10T03:42:48;3.72;;;3.42;;
41327;SDS011;27075;47.636;-2.058;2022-11-10T03:45:14;5.95;;;3.65;;
41327;SDS011;27075;47.636;-2.058;2022-11-10T03:47:43;4.43;;;4.03;;
41327;SDS011;27075;47.636;-2.058;2022-11-10T03:50:10;5.13;;;3.65;;
41327;SDS011;27075;47.636;-2.058;2022-11-10T03:52:39;3.03;;;2.78;;
41327;SDS011;27075;47.636;-2.058;2022-11-10T03:55:06;3.67;;;3.17;;
41327;SDS011;27075;47.636;-2.058;2022-11-10T03:59:59;3.03;;;2.83;;
41327;SDS011;27075;47.636;-2.058;2022-11-10T04:02:24;3.05;;;2.83;;
41327;SDS011;27075;47.636;-2.058;2022-11-10T04:04:50;3.10;;;2.80;;
41327;SDS011;27075;47.636;-2.058;2022-11-10T04:07:35;3.35;;;3.05;;
41327;SDS011;27075;47.636;-2.058;2022-11-10T04:10:20;4.30;;;3.28;;
41327;SDS011;27075;47.636;-2.058;2022-11-10T04:12:46;3.25;;;2.95;;
41327;SDS011;27075;47.636;-2.058;2022-11-10T04:15:47;3.40;;;2.75;;
41327;SDS011;27075;47.636;-2.058;2022-11-10T04:18:13;3.75;;;3.38;;
41327;SDS011;27075;47.636;-2.058;2022-11-10T04:20:52;3.75;;;2.90;;
41327;SDS011;27075;47.636;-2.058;2022-11-10T04:23:19;5.53;;;3.95;;
41327;SDS011;27075;47.636;-2.058;2022-11-10T04:28:49;10.68;;;7.90;;
41327;SDS011;27075;47.636;-2.058;2022-11-10T04:31:16;7.60;;;6.05;;
41327;SDS011;27075;47.636;-2.058;2022-11-10T04:33:42;6.10;;;4.97;;
41327;SDS011;27075;47.636;-2.058;2022-11-10T04:36:10;5.88;;;4.40;;
41327;SDS011;27075;47.636;-2.058;2022-11-10T04:38:36;4.90;;;3.75;;
41327;SDS011;27075;47.636;-2.058;2022-11-10T04:41:02;3.47;;;3.10;;
41327;SDS011;27075;47.636;-2.058;2022-11-10T04:43:28;3.92;;;3.50;;
41327;SDS011;27075;47.636;-2.058;2022-11-10T04:45:54;4.30;;;3.40;;
41327;SDS011;27075;47.636;-2.058;2022-11-10T04:48:21;4.35;;;3.38;;
41327;SDS011;27075;47.636;-2.058;2022-11-10T04:53:13;5.32;;;3.38;;
41327;SDS011;27075;47.636;-2.058;2022-11-10T04:55:42;4.25;;;3.30;;
41327;SDS011;27075;47.636;-2.058;2022-11-10T04:58:09;4.05;;;3.22;;
41327;SDS011;27075;47.636;-2.058;2022-11-10T05:00:35;4.32;;;3.92;;
41327;SDS011;27075;47.636;-2.058;2022-11-10T05:05:27;6.03;;;3.60;;
41327;SDS011;27075;47.636;-2.058;2022-11-10T05:07:53;3.92;;;2.97;;
41327;SDS011;27075;47.636;-2.058;2022-11-10T05:10:19;3.42;;;3.13;;
41327;SDS011;27075;47.636;-2.058;2022-11-10T05:12:45;4.07;;;3.35;;
41327;SDS011;27075;47.636;-2.058;2022-11-10T05:15:11;2.83;;;2.63;;
41327;SDS011;27075;47.636;-2.058;2022-11-10T05:17:37;3.25;;;2.95;;
41327;SDS011;27075;47.636;-2.058;2022-11-10T05:20:04;4.43;;;3.42;;
41327;SDS011;27075;47.636;-2.058;2022-11-10T05:22:30;3.20;;;2.90;;
41327;SDS011;27075;47.636;-2.058;2022-11-10T05:24:56;3.30;;;3.00;;
41327;SDS011;27075;47.636;-2.058;2022-11-10T05:27:22;2.90;;;2.70;;
41327;SDS011;27075;47.636;-2.058;2022-11-10T05:29:48;2.85;;;2.65;;
41327;SDS011;27075;47.636;-2.058;2022-11-10T05:32:14;2.95;;;2.75;;
41327;SDS011;27075;47.636;-2.058;2022-11-10T05:34:40;3.45;;;3.15;;
41327;SDS011;27075;47.636;-2.058;2022-11-10T05:37:06;3.30;;;3.00;;
41327;SDS011;27075;47.636;-2.058;2022-11-10T05:39:32;4.38;;;2.78;;
41327;SDS011;27075;47.636;-2.058;2022-11-10T05:41:58;3.65;;;3.35;;
41327;SDS011;27075;47.636;-2.058;2022-11-10T05:44:24;4.47;;;3.75;;
41327;SDS011;27075;47.636;-2.058;2022-11-10T05:46:50;4.25;;;3.85;;
41327;SDS011;27075;47.636;-2.058;2022-11-10T05:51:42;4.55;;;4.15;;
41327;SDS011;27075;47.636;-2.058;2022-11-10T05:54:08;4.25;;;3.45;;
41327;SDS011;27075;47.636;-2.058;2022-11-10T05:56:34;4.63;;;4.22;;
41327;SDS011;27075;47.636;-2.058;2022-11-10T05:59:00;5.82;;;5.25;;
41327;SDS011;27075;47.636;-2.058;2022-11-10T06:01:26;6.32;;;4.40;;
41327;SDS011;27075;47.636;-2.058;2022-11-10T06:03:52;4.70;;;3.38;;
41327;SDS011;27075;47.636;-2.058;2022-11-10T06:06:18;4.55;;;4.10;;
41327;SDS011;27075;47.636;-2.058;2022-11-10T06:08:46;6.22;;;4.22;;
41327;SDS011;27075;47.636;-2.058;2022-11-10T06:11:12;3.85;;;3.35;;
41327;SDS011;27075;47.636;-2.058;2022-11-10T06:13:39;5.82;;;5.25;;
41327;SDS011;27075;47.636;-2.058;2022-11-10T06:16:05;5.10;;;4.68;;
41327;SDS011;27075;47.636;-2.058;2022-11-10T06:18:31;9.07;;;6.13;;
41327;SDS011;27075;47.636;-2.058;2022-11-10T06:20:57;4.85;;;4.53;;
41327;SDS011;27075;47.636;-2.058;2022-11-10T06:23:23;8.35;;;5.15;;
41327;SDS011;27075;47.636;-2.058;2022-11-10T06:25:49;6.32;;;5.72;;
41327;SDS011;27075;47.636;-2.058;2022-11-10T06:28:15;5.75;;;5.20;;
41327;SDS011;27075;47.636;-2.058;2022-11-10T06:30:42;8.43;;;6.90;;
41327;SDS011;27075;47.636;-2.058;2022-11-10T06:33:08;7.38;;;5.70;;
41327;SDS011;27075;47.636;-2.058;2022-11-10T06:40:26;7.55;;;6.57;;
41327;SDS011;27075;47.636;-2.058;2022-11-10T06:42:52;6.93;;;5.70;;
41327;SDS011;27075;47.636;-2.058;2022-11-10T06:45:18;10.75;;;9.30;;
41327;SDS011;27075;47.636;-2.058;2022-11-10T06:47:44;10.10;;;9.10;;
41327;SDS011;27075;47.636;-2.058;2022-11-10T06:50:10;10.98;;;9.90;;
41327;SDS011;27075;47.636;-2.058;2022-11-10T06:52:36;11.43;;;7.32;;
41327;SDS011;27075;47.636;-2.058;2022-11-10T06:55:02;9.68;;;8.73;;
41327;SDS011;27075;47.636;-2.058;2022-11-10T06:57:28;10.18;;;6.97;;
41327;SDS011;27075;47.636;-2.058;2022-11-10T06:59:54;8.35;;;7.03;;
41327;SDS011;27075;47.636;-2.058;2022-11-10T07:02:20;7.80;;;6.22;;
41327;SDS011;27075;47.636;-2.058;2022-11-10T07:04:47;6.95;;;6.18;;
41327;SDS011;27075;47.636;-2.058;2022-11-10T07:07:15;18.55;;;7.38;;
41327;SDS011;27075;47.636;-2.058;2022-11-10T07:09:41;8.32;;;5.18;;
41327;SDS011;27075;47.636;-2.058;2022-11-10T07:12:07;6.22;;;5.63;;
41327;SDS011;27075;47.636;-2.058;2022-11-10T07:14:33;7.72;;;5.20;;
41327;SDS011;27075;47.636;-2.058;2022-11-10T07:16:59;5.25;;;4.75;;
41327;SDS011;27075;47.636;-2.058;2022-11-10T07:19:25;8.93;;;5.90;;
41327;SDS011;27075;47.636;-2.058;2022-11-10T07:21:51;10.30;;;5.72;;
41327;SDS011;27075;47.636;-2.058;2022-11-10T07:24:17;10.15;;;5.40;;
41327;SDS011;27075;47.636;-2.058;2022-11-10T07:26:43;5.22;;;4.53;;
41327;SDS011;27075;47.636;-2.058;2022-11-10T07:29:09;9.18;;;4.35;;
41327;SDS011;27075;47.636;-2.058;2022-11-10T07:31:35;5.25;;;4.30;;
41327;SDS011;27075;47.636;-2.058;2022-11-10T07:34:01;4.85;;;4.35;;
41327;SDS011;27075;47.636;-2.058;2022-11-10T07:36:27;5.13;;;4.57;;
41327;SDS011;27075;47.636;-2.058;2022-11-10T07:38:54;5.00;;;4.47;;
41327;SDS011;27075;47.636;-2.058;2022-11-10T07:43:46;7.05;;;4.25;;
41327;SDS011;27075;47.636;-2.058;2022-11-10T07:46:12;4.25;;;3.85;;
41327;SDS011;27075;47.636;-2.058;2022-11-10T07:48:38;3.70;;;3.40;;
41327;SDS011;27075;47.636;-2.058;2022-11-10T07:51:04;3.65;;;3.35;;
41327;SDS011;27075;47.636;-2.058;2022-11-10T07:53:30;4.65;;;3.60;;
41327;SDS011;27075;47.636;-2.058;2022-11-10T07:55:56;4.05;;;3.70;;
41327;SDS011;27075;47.636;-2.058;2022-11-10T07:58:22;5.03;;;4.55;;
41327;SDS011;27075;47.636;-2.058;2022-11-10T08:00:49;7.53;;;6.82;;
41327;SDS011;27075;47.636;-2.058;2022-11-10T08:03:16;7.88;;;7.00;;
41327;SDS011;27075;47.636;-2.058;2022-11-10T08:05:42;9.80;;;6.45;;
41327;SDS011;27075;47.636;-2.058;2022-11-10T08:10:34;12.10;;;6.97;;
41327;SDS011;27075;47.636;-2.058;2022-11-10T08:13:01;9.70;;;6.40;;
41327;SDS011;27075;47.636;-2.058;2022-11-10T08:15:27;7.00;;;6.25;;
41327;SDS011;27075;47.636;-2.058;2022-11-10T08:18:00;9.85;;;6.40;;
41327;SDS011;27075;47.636;-2.058;2022-11-10T08:20:27;9.25;;;5.90;;
41327;SDS011;27075;47.636;-2.058;2022-11-10T08:22:57;5.97;;;5.47;;
41327;SDS011;27075;47.636;-2.058;2022-11-10T08:25:23;6.55;;;5.95;;
41327;SDS011;27075;47.636;-2.058;2022-11-10T08:27:55;6.80;;;5.85;;
41327;SDS011;27075;47.636;-2.058;2022-11-10T08:30:21;5.80;;;5.30;;
41327;SDS011;27075;47.636;-2.058;2022-11-10T08:32:47;6.30;;;5.70;;
41327;SDS011;27075;47.636;-2.058;2022-11-10T08:35:13;6.25;;;5.43;;
41327;SDS011;27075;47.636;-2.058;2022-11-10T08:37:39;5.35;;;4.70;;
41327;SDS011;27075;47.636;-2.058;2022-11-10T08:40:05;5.68;;;4.07;;
41327;SDS011;27075;47.636;-2.058;2022-11-10T08:44:57;4.40;;;4.00;;
41327;SDS011;27075;47.636;-2.058;2022-11-10T08:47:23;4.45;;;4.03;;
41327;SDS011;27075;47.636;-2.058;2022-11-10T08:49:49;7.70;;;4.40;;
41327;SDS011;27075;47.636;-2.058;2022-11-10T08:52:15;6.40;;;3.92;;
41327;SDS011;27075;47.636;-2.058;2022-11-10T08:54:41;5.20;;;3.75;;
41327;SDS011;27075;47.636;-2.058;2022-11-10T08:57:07;4.03;;;3.55;;
41327;SDS011;27075;47.636;-2.058;2022-11-10T08:59:33;7.03;;;4.18;;
41327;SDS011;27075;47.636;-2.058;2022-11-10T09:01:59;4.32;;;3.63;;
41327;SDS011;27075;47.636;-2.058;2022-11-10T09:04:25;4.53;;;4.13;;
41327;SDS011;27075;47.636;-2.058;2022-11-10T09:06:51;4.72;;;3.90;;
41327;SDS011;27075;47.636;-2.058;2022-11-10T09:09:17;7.55;;;3.75;;
41327;SDS011;27075;47.636;-2.058;2022-11-10T09:11:43;5.28;;;4.38;;
41327;SDS011;27075;47.636;-2.058;2022-11-10T09:14:09;4.82;;;3.88;;
41327;SDS011;27075;47.636;-2.058;2022-11-10T09:16:35;5.50;;;4.57;;
41327;SDS011;27075;47.636;-2.058;2022-11-10T09:19:01;8.32;;;5.82;;
41327;SDS011;27075;47.636;-2.058;2022-11-10T09:21:27;7.57;;;5.85;;
41327;SDS011;27075;47.636;-2.058;2022-11-10T09:23:53;5.75;;;5.28;;
41327;SDS011;27075;47.636;-2.058;2022-11-10T09:26:19;5.07;;;4.68;;
41327;SDS011;27075;47.636;-2.058;2022-11-10T09:28:45;4.20;;;3.80;;
41327;SDS011;27075;47.636;-2.058;2022-11-10T09:31:11;3.30;;;3.00;;
41327;SDS011;27075;47.636;-2.058;2022-11-10T09:33:37;8.70;;;4.65;;
41327;SDS011;27075;47.636;-2.058;2022-11-10T09:36:03;4.22;;;3.42;;
41327;SDS011;27075;47.636;-2.058;2022-11-10T09:38:30;4.82;;;4.43;;
41327;SDS011;27075;47.636;-2.058;2022-11-10T09:40:58;7.80;;;6.55;;
41327;SDS011;27075;47.636;-2.058;2022-11-10T09:45:52;23.23;;;18.17;;
41327;SDS011;27075;47.636;-2.058;2022-11-10T09:48:27;17.25;;;7.68;;
41327;SDS011;27075;47.636;-2.058;2022-11-10T09:51:14;8.07;;;4.63;;
41327;SDS011;27075;47.636;-2.058;2022-11-10T09:56:07;9.98;;;8.98;;
41327;SDS011;27075;47.636;-2.058;2022-11-10T09:58:37;10.18;;;7.07;;
41327;SDS011;27075;47.636;-2.058;2022-11-10T10:03:29;13.02;;;11.23;;
41327;SDS011;27075;47.636;-2.058;2022-11-10T10:06:08;14.63;;;11.50;;
41327;SDS011;27075;47.636;-2.058;2022-11-10T10:13:45;5.22;;;4.72;;
41327;SDS011;27075;47.636;-2.058;2022-11-10T10:18:43;4.93;;;4.47;;
41327;SDS011;27075;47.636;-2.058;2022-11-10T10:21:23;8.70;;;5.22;;
41327;SDS011;27075;47.636;-2.058;2022-11-10T10:23:53;5.82;;;4.45;;
41327;SDS011;27075;47.636;-2.058;2022-11-10T10:26:23;5.03;;;3.72;;
41327;SDS011;27075;47.636;-2.058;2022-11-10T10:28:49;6.70;;;3.70;;
41327;SDS011;27075;47.636;-2.058;2022-11-10T10:31:28;8.45;;;6.38;;
41327;SDS011;27075;47.636;-2.058;2022-11-10T10:33:55;6.55;;;4.20;;
41327;SDS011;27075;47.636;-2.058;2022-11-10T10:38:52;5.85;;;4.95;;
41327;SDS011;27075;47.636;-2.058;2022-11-10T10:43:46;6.20;;;4.07;;
41327;SDS011;27075;47.636;-2.058;2022-11-10T10:46:12;4.75;;;4.18;;
41327;SDS011;27075;47.636;-2.058;2022-11-10T10:48:44;8.93;;;5.00;;
41327;SDS011;27075;47.636;-2.058;2022-11-10T10:53:46;4.10;;;3.50;;
41327;SDS011;27075;47.636;-2.058;2022-11-10T10:56:16;5.20;;;3.93;;
41327;SDS011;27075;47.636;-2.058;2022-11-10T10:58:51;8.18;;;4.35;;
41327;SDS011;27075;47.636;-2.058;2022-11-10T11:01:19;7.70;;;4.05;;
41327;SDS011;27075;47.636;-2.058;2022-11-10T11:03:46;5.43;;;3.75;;
41327;SDS011;27075;47.636;-2.058;2022-11-10T11:11:29;4.32;;;3.78;;
41327;SDS011;27075;47.636;-2.058;2022-11-10T11:16:48;6.47;;;3.90;;
41327;SDS011;27075;47.636;-2.058;2022-11-10T11:19:14;4.20;;;3.55;;
41327;SDS011;27075;47.636;-2.058;2022-11-10T11:21:48;5.32;;;3.25;;
41327;SDS011;27075;47.636;-2.058;2022-11-10T11:29:24;3.10;;;2.80;;
41327;SDS011;27075;47.636;-2.058;2022-11-10T11:34:34;6.65;;;3.70;;
41327;SDS011;27075;47.636;-2.058;2022-11-10T11:51:54;3.97;;;3.17;;
41327;SDS011;27075;47.636;-2.058;2022-11-10T12:04:44;7.20;;;3.20;;
41327;SDS011;27075;47.636;-2.058;2022-11-10T12:09:56;4.80;;;2.88;;
41327;SDS011;27075;47.636;-2.058;2022-11-10T12:12:51;3.57;;;2.70;;
41327;SDS011;27075;47.636;-2.058;2022-11-10T12:18:10;2.90;;;2.55;;
41327;SDS011;27075;47.636;-2.058;2022-11-10T12:28:15;8.43;;;5.35;;
41327;SDS011;27075;47.636;-2.058;2022-11-10T12:30:42;9.10;;;3.53;;
41327;SDS011;27075;47.636;-2.058;2022-11-10T12:35:53;8.90;;;3.67;;
41327;SDS011;27075;47.636;-2.058;2022-11-10T12:38:20;9.75;;;6.80;;
41327;SDS011;27075;47.636;-2.058;2022-11-10T12:41:12;8.85;;;3.40;;
41327;SDS011;27075;47.636;-2.058;2022-11-10T12:46:03;11.70;;;7.85;;
41327;SDS011;27075;47.636;-2.058;2022-11-10T12:48:54;8.80;;;6.63;;
41327;SDS011;27075;47.636;-2.058;2022-11-10T12:51:24;10.20;;;6.45;;
41327;SDS011;27075;47.636;-2.058;2022-11-10T12:53:51;5.47;;;3.80;;
41327;SDS011;27075;47.636;-2.058;2022-11-10T12:56:22;5.80;;;3.45;;
41327;SDS011;27075;47.636;-2.058;2022-11-10T12:59:36;6.32;;;3.63;;
41327;SDS011;27075;47.636;-2.058;2022-11-10T13:01:40;7.55;;;4.47;;
41327;SDS011;27075;47.636;-2.058;2022-11-10T13:04:07;5.57;;;2.75;;
41327;SDS011;27075;47.636;-2.058;2022-11-10T13:06:33;2.65;;;2.13;;
41327;SDS011;27075;47.636;-2.058;2022-11-10T13:09:00;4.35;;;2.55;;
41327;SDS011;27075;47.636;-2.058;2022-11-10T13:11:28;5.18;;;3.00;;
41327;SDS011;27075;47.636;-2.058;2022-11-10T13:13:55;5.93;;;3.30;;
41327;SDS011;27075;47.636;-2.058;2022-11-10T13:19:52;7.75;;;3.42;;
41327;SDS011;27075;47.636;-2.058;2022-11-10T13:24:28;3.25;;;2.33;;
41327;SDS011;27075;47.636;-2.058;2022-11-10T13:32:42;6.25;;;2.75;;
41327;SDS011;27075;47.636;-2.058;2022-11-10T13:34:43;3.15;;;2.40;;
41327;SDS011;27075;47.636;-2.058;2022-11-10T13:42:39;7.13;;;2.47;;
41327;SDS011;27075;47.636;-2.058;2022-11-10T13:52:55;3.60;;;2.90;;
41327;SDS011;27075;47.636;-2.058;2022-11-10T13:58:26;5.28;;;2.47;;
41327;SDS011;27075;47.636;-2.058;2022-11-10T14:00:47;5.05;;;2.35;;
41327;SDS011;27075;47.636;-2.058;2022-11-10T14:06:15;4.68;;;2.15;;
41327;SDS011;27075;47.636;-2.058;2022-11-10T14:08:58;6.18;;;2.40;;
41327;SDS011;27075;47.636;-2.058;2022-11-10T14:11:34;3.10;;;2.25;;
41327;SDS011;27075;47.636;-2.058;2022-11-10T14:16:42;3.28;;;1.95;;
41327;SDS011;27075;47.636;-2.058;2022-11-10T14:22:10;3.88;;;2.38;;
41327;SDS011;27075;47.636;-2.058;2022-11-10T14:24:52;5.60;;;2.20;;
41327;SDS011;27075;47.636;-2.058;2022-11-10T14:27:20;5.70;;;3.00;;
41327;SDS011;27075;47.636;-2.058;2022-11-10T14:29:46;3.97;;;2.00;;
41327;SDS011;27075;47.636;-2.058;2022-11-10T14:32:14;3.05;;;2.35;;
41327;SDS011;27075;47.636;-2.058;2022-11-10T14:34:45;3.30;;;1.90;;
41327;SDS011;27075;47.636;-2.058;2022-11-10T14:37:13;2.30;;;1.70;;
41327;SDS011;27075;47.636;-2.058;2022-11-10T14:39:40;4.72;;;2.20;;
41327;SDS011;27075;47.636;-2.058;2022-11-10T14:44:32;2.75;;;2.03;;
41327;SDS011;27075;47.636;-2.058;2022-11-10T14:47:12;5.72;;;3.20;;
41327;SDS011;27075;47.636;-2.058;2022-11-10T14:49:38;3.97;;;2.25;;
41327;SDS011;27075;47.636;-2.058;2022-11-10T14:52:04;4.05;;;2.30;;
41327;SDS011;27075;47.636;-2.058;2022-11-10T14:54:32;5.38;;;2.60;;
41327;SDS011;27075;47.636;-2.058;2022-11-10T14:56:59;3.25;;;2.55;;
41327;SDS011;27075;47.636;-2.058;2022-11-10T14:59:26;2.72;;;2.03;;
41327;SDS011;27075;47.636;-2.058;2022-11-10T15:04:18;3.05;;;1.95;;
41327;SDS011;27075;47.636;-2.058;2022-11-10T15:06:45;2.58;;;2.00;;
41327;SDS011;27075;47.636;-2.058;2022-11-10T15:09:21;4.22;;;2.35;;
41327;SDS011;27075;47.636;-2.058;2022-11-10T15:11:49;2.15;;;1.95;;
41327;SDS011;27075;47.636;-2.058;2022-11-10T15:14:59;5.35;;;2.88;;
41327;SDS011;27075;47.636;-2.058;2022-11-10T15:17:10;3.95;;;2.28;;
41327;SDS011;27075;47.636;-2.058;2022-11-10T15:22:26;2.80;;;2.35;;
41327;SDS011;27075;47.636;-2.058;2022-11-10T15:24:59;4.72;;;2.30;;
41327;SDS011;27075;47.636;-2.058;2022-11-10T15:27:29;4.03;;;2.45;;
41327;SDS011;27075;47.636;-2.058;2022-11-10T15:29:57;5.90;;;2.40;;
41327;SDS011;27075;47.636;-2.058;2022-11-10T15:32:27;6.60;;;2.78;;
41327;SDS011;27075;47.636;-2.058;2022-11-10T15:35:05;4.35;;;2.00;;
41327;SDS011;27075;47.636;-2.058;2022-11-10T15:37:31;3.50;;;2.00;;
41327;SDS011;27075;47.636;-2.058;2022-11-10T15:42:42;4.78;;;2.47;;
41327;SDS011;27075;47.636;-2.058;2022-11-10T15:45:08;3.45;;;2.72;;
41327;SDS011;27075;47.636;-2.058;2022-11-10T15:47:34;4.93;;;2.13;;
41327;SDS011;27075;47.636;-2.058;2022-11-10T15:50:00;4.82;;;3.63;;
41327;SDS011;27075;47.636;-2.058;2022-11-10T15:52:26;4.30;;;2.65;;
41327;SDS011;27075;47.636;-2.058;2022-11-10T15:54:52;7.70;;;4.38;;
41327;SDS011;27075;47.636;-2.058;2022-11-10T15:57:19;5.60;;;3.90;;
41327;SDS011;27075;47.636;-2.058;2022-11-10T15:59:46;3.35;;;2.80;;
41327;SDS011;27075;47.636;-2.058;2022-11-10T16:04:41;2.58;;;2.22;;
41327;SDS011;27075;47.636;-2.058;2022-11-10T16:07:07;3.42;;;2.35;;
41327;SDS011;27075;47.636;-2.058;2022-11-10T16:11:59;6.05;;;2.53;;
41327;SDS011;27075;47.636;-2.058;2022-11-10T16:14:25;2.22;;;2.03;;
41327;SDS011;27075;47.636;-2.058;2022-11-10T16:16:51;3.85;;;2.45;;
41327;SDS011;27075;47.636;-2.058;2022-11-10T16:19:17;2.97;;;2.40;;
41327;SDS011;27075;47.636;-2.058;2022-11-10T16:21:43;2.58;;;2.38;;
41327;SDS011;27075;47.636;-2.058;2022-11-10T16:24:09;5.05;;;3.05;;
41327;SDS011;27075;47.636;-2.058;2022-11-10T16:26:35;6.00;;;4.00;;
41327;SDS011;27075;47.636;-2.058;2022-11-10T16:29:01;6.43;;;3.58;;
41327;SDS011;27075;47.636;-2.058;2022-11-10T16:31:27;8.30;;;5.38;;
41327;SDS011;27075;47.636;-2.058;2022-11-10T16:33:55;12.98;;;8.25;;
41327;SDS011;27075;47.636;-2.058;2022-11-10T16:36:25;8.02;;;5.63;;
41327;SDS011;27075;47.636;-2.058;2022-11-10T16:38:52;8.02;;;6.57;;
41327;SDS011;27075;47.636;-2.058;2022-11-10T16:41:19;9.23;;;5.88;;
41327;SDS011;27075;47.636;-2.058;2022-11-10T16:43:45;6.10;;;3.83;;
41327;SDS011;27075;47.636;-2.058;2022-11-10T16:46:24;7.30;;;3.47;;
41327;SDS011;27075;47.636;-2.058;2022-11-10T16:48:51;5.18;;;3.13;;
41327;SDS011;27075;47.636;-2.058;2022-11-10T16:51:23;4.13;;;3.38;;
41327;SDS011;27075;47.636;-2.058;2022-11-10T16:53:51;5.30;;;3.50;;
41327;SDS011;27075;47.636;-2.058;2022-11-10T16:58:45;3.13;;;2.80;;
41327;SDS011;27075;47.636;-2.058;2022-11-10T17:03:39;4.10;;;3.08;;
41327;SDS011;27075;47.636;-2.058;2022-11-10T17:06:10;6.57;;;4.25;;
41327;SDS011;27075;47.636;-2.058;2022-11-10T17:08:37;8.18;;;3.20;;
41327;SDS011;27075;47.636;-2.058;2022-11-10T17:13:30;6.65;;;3.05;;
41327;SDS011;27075;47.636;-2.058;2022-11-10T17:16:41;8.45;;;4.10;;
41327;SDS011;27075;47.636;-2.058;2022-11-10T17:18:42;4.53;;;4.13;;
41327;SDS011;27075;47.636;-2.058;2022-11-10T17:23:34;5.63;;;4.43;;
41327;SDS011;27075;47.636;-2.058;2022-11-10T17:26:00;8.13;;;4.82;;
41327;SDS011;27075;47.636;-2.058;2022-11-10T17:30:52;5.35;;;4.78;;
41327;SDS011;27075;47.636;-2.058;2022-11-10T17:33:18;4.78;;;3.67;;
41327;SDS011;27075;47.636;-2.058;2022-11-10T17:35:45;7.00;;;3.35;;
41327;SDS011;27075;47.636;-2.058;2022-11-10T17:38:12;8.13;;;3.22;;
41327;SDS011;27075;47.636;-2.058;2022-11-10T17:40:39;4.88;;;2.65;;
41327;SDS011;27075;47.636;-2.058;2022-11-10T17:43:10;5.43;;;3.13;;
41327;SDS011;27075;47.636;-2.058;2022-11-10T17:45:37;5.75;;;3.22;;
41327;SDS011;27075;47.636;-2.058;2022-11-10T17:48:03;3.55;;;3.20;;